Time;durP1;ratioP1;P1;durP2;ratioP2;P2;SDS_P1;SDS_P2;PMS_P1;PMS_P2;Temp;Humidity;BMP_temperature;BMP_pressure;BME280_temperature;BME280_humidity;BME280_pressure;Samples;Min_cycle;Max_cycle;Signal;HPM_P1;HPM_P2
2023/10/17 00:04:55;;;;;;;3.42;1.50;;;11.40;72.90;;;;;;5015070;28;20104;-69
2023/10/17 00:07:27;;;;;;;1.95;1.05;;;11.40;73.20;;;;;;5052831;28;20100;-70
2023/10/17 00:09:55;;;;;;;;;;;11.40;73.70;;;;;;5052104;28;20384;-70
2023/10/17 00:14:58;;;;;;;3.55;1.77;;;11.40;73.90;;;;;;5056804;28;20040;-70
2023/10/17 00:17:24;;;;;;;2.55;1.23;;;11.30;74.30;;;;;;5057305;28;20037;-70
2023/10/17 00:19:50;;;;;;;1.27;0.80;;;11.30;74.00;;;;;;5056881;28;20021;-70
2023/10/17 00:22:18;;;;;;;3.05;1.20;;;11.30;74.10;;;;;;5056825;28;20025;-70
2023/10/17 00:24:48;;;;;;;1.98;1.10;;;11.30;74.20;;;;;;5057016;28;20074;-70
2023/10/17 00:27:15;;;;;;;2.30;1.30;;;11.30;74.20;;;;;;5056803;28;20037;-70
2023/10/17 00:29:43;;;;;;;1.40;0.95;;;11.30;74.00;;;;;;5056843;28;20025;-69
2023/10/17 00:32:09;;;;;;;1.88;1.15;;;11.30;73.90;;;;;;5056725;28;20407;-70
2023/10/17 00:34:35;;;;;;;1.33;0.70;;;11.20;74.20;;;;;;5055545;28;20131;-70
2023/10/17 00:37:11;;;;;;;2.33;0.95;;;11.20;74.30;;;;;;5056611;28;20124;-70
2023/10/17 00:39:38;;;;;;;2.53;0.90;;;11.20;73.90;;;;;;5056520;28;20427;-70
2023/10/17 00:44:32;;;;;;;1.95;1.20;;;11.20;74.00;;;;;;5056521;28;20120;-70
2023/10/17 00:47:00;;;;;;;1.90;1.08;;;11.20;73.90;;;;;;5054804;28;20391;-70
2023/10/17 00:49:29;;;;;;;2.95;1.25;;;11.20;73.90;;;;;;5056289;28;20025;-70
2023/10/17 00:51:59;;;;;;;3.50;1.45;;;;;;;;;;5056381;28;20354;-69
2023/10/17 00:54:26;;;;;;;1.73;0.90;;;11.10;73.50;;;;;;5056138;28;20025;-70
2023/10/17 00:56:56;;;;;;;2.40;1.27;;;11.10;74.10;;;;;;5055998;28;20137;-69
2023/10/17 00:59:35;;;;;;;1.25;0.63;;;11.10;74.40;;;;;;5053353;28;20029;-69
2023/10/17 01:02:08;;;;;;;3.20;1.45;;;11.10;74.50;;;;;;5053605;28;20025;-69
2023/10/17 01:04:40;;;;;;;2.35;1.10;;;11.10;74.70;;;;;;5052908;28;20362;-70
2023/10/17 01:07:10;;;;;;;;;;;11.10;74.70;;;;;;5056161;28;20381;-69
2023/10/17 01:09:37;;;;;;;3.50;1.08;;;11.10;74.90;;;;;;5054004;28;20003;-70
2023/10/17 01:12:10;;;;;;;2.88;1.25;;;11.10;75.00;;;;;;5055842;28;20569;-70
2023/10/17 01:14:37;;;;;;;3.78;1.05;;;11.10;74.80;;;;;;5055697;28;20021;-70
2023/10/17 01:17:12;;;;;;;2.28;1.15;;;11.10;74.90;;;;;;5055935;28;20037;-70
2023/10/17 01:19:38;;;;;;;1.65;1.00;;;11.10;74.90;;;;;;5055540;28;20013;-70
2023/10/17 01:22:07;;;;;;;2.53;1.00;;;11.00;74.70;;;;;;5055343;28;20029;-70
2023/10/17 01:24:34;;;;;;;3.70;1.00;;;11.00;74.90;;;;;;5055783;28;20024;-70
2023/10/17 01:27:06;;;;;;;2.42;0.95;;;11.00;75.10;;;;;;5055625;28;20032;-70
2023/10/17 01:29:34;;;;;;;3.20;1.30;;;11.00;75.30;;;;;;5055097;28;20079;-70
2023/10/17 01:32:02;;;;;;;2.92;1.00;;;11.00;75.30;;;;;;5055556;28;20025;-70
2023/10/17 01:34:28;;;;;;;1.70;1.05;;;10.90;75.20;;;;;;5055338;28;20041;-70
2023/10/17 01:36:57;;;;;;;5.55;1.10;;;10.90;75.30;;;;;;5055241;28;20029;-70
2023/10/17 01:39:25;;;;;;;3.45;1.48;;;10.90;75.40;;;;;;5055413;28;20017;-70
2023/10/17 01:41:52;;;;;;;2.92;1.10;;;10.90;75.50;;;;;;5055374;28;20480;-70
2023/10/17 01:44:17;;;;;;;2.33;1.10;;;10.90;75.40;;;;;;5054835;28;20017;-70
2023/10/17 01:46:43;;;;;;;2.15;1.05;;;10.90;75.80;;;;;;5055284;28;20511;-70
2023/10/17 01:49:13;;;;;;;1.92;1.35;;;10.90;76.10;;;;;;5055483;28;20071;-70
2023/10/17 01:51:48;;;;;;;2.95;0.90;;;10.90;76.20;;;;;;5055404;28;20460;-69
2023/10/17 01:54:14;;;;;;;2.47;1.00;;;10.80;76.00;;;;;;5055112;28;20025;-69
2023/10/17 01:56:40;;;;;;;1.50;0.80;;;10.80;76.10;;;;;;5054869;28;20033;-70
2023/10/17 01:59:27;;;;;;;6.43;2.00;;;10.80;75.80;;;;;;5055061;28;20322;-69
2023/10/17 02:01:57;;;;;;;2.05;0.98;;;10.80;75.70;;;;;;5054622;28;20031;-69
2023/10/17 02:04:26;;;;;;;1.30;0.80;;;10.80;75.30;;;;;;5055047;28;20139;-70
2023/10/17 02:06:52;;;;;;;1.98;1.10;;;10.80;75.50;;;;;;5055036;28;20021;-70
2023/10/17 02:11:54;;;;;;;2.08;1.00;;;10.80;75.50;;;;;;5055247;28;20033;-70
2023/10/17 02:14:23;;;;;;;3.38;1.02;;;10.80;75.40;;;;;;5054813;28;20028;-70
2023/10/17 02:16:52;;;;;;;2.03;1.00;;;10.80;75.50;;;;;;5054657;28;20446;-69
2023/10/17 02:19:31;;;;;;;3.05;1.35;;;10.80;75.70;;;;;;5054601;28;20412;-70
2023/10/17 02:22:00;;;;;;;2.92;0.80;;;10.70;75.40;;;;;;5054528;28;20389;-69
2023/10/17 02:24:29;;;;;;;2.55;1.05;;;;;;;;;;5054530;28;20028;-70
2023/10/17 02:27:08;;;;;;;1.60;0.75;;;10.70;74.50;;;;;;5054641;28;20024;-70
2023/10/17 02:29:39;;;;;;;3.17;0.98;;;10.70;75.60;;;;;;5054638;28;20031;-70
2023/10/17 02:32:15;;;;;;;4.70;0.93;;;10.70;75.80;;;;;;5050796;28;20033;-69
2023/10/17 02:34:43;;;;;;;2.53;1.00;;;10.70;75.90;;;;;;5033658;28;20400;-69
2023/10/17 02:37:16;;;;;;;1.88;1.00;;;10.60;75.90;;;;;;5034337;28;20033;-69
2023/10/17 02:39:44;;;;;;;2.22;1.00;;;10.60;76.70;;;;;;5034162;28;20386;-69
2023/10/17 02:42:10;;;;;;;3.53;1.70;;;10.60;76.00;;;;;;5034620;28;20053;-70
2023/10/17 02:44:39;;;;;;;2.30;0.93;;;10.60;76.50;;;;;;5034586;28;20053;-70
2023/10/17 02:47:14;;;;;;;2.65;1.00;;;10.60;76.50;;;;;;5034279;28;20036;-70
2023/10/17 02:49:43;;;;;;;1.98;1.00;;;10.50;76.40;;;;;;5034180;28;20025;-69
2023/10/17 02:52:09;;;;;;;1.65;0.80;;;10.50;76.60;;;;;;5034223;28;20040;-69
2023/10/17 02:57:23;;;;;;;1.80;0.97;;;10.50;77.50;;;;;;5034097;28;20393;-70
2023/10/17 02:59:57;;;;;;;3.42;1.00;;;10.50;77.80;;;;;;5033973;28;20025;-69
2023/10/17 03:02:36;;;;;;;2.28;0.90;;;10.50;78.20;;;;;;5034058;28;20386;-69
2023/10/17 03:05:11;;;;;;;2.03;0.90;;;10.40;78.50;;;;;;5034232;28;20449;-69
2023/10/17 03:07:40;;;;;;;2.22;1.05;;;10.40;78.20;;;;;;5033967;28;20045;-70
2023/10/17 03:10:06;;;;;;;2.03;1.00;;;10.40;78.50;;;;;;5033907;28;20033;-70
2023/10/17 03:12:40;;;;;;;3.55;0.90;;;10.40;78.60;;;;;;5034073;28;20378;-69
2023/10/17 03:18:15;;;;;;;2.37;0.80;;;10.40;77.80;;;;;;5021571;28;20504;-70
2023/10/17 03:20:41;;;;;;;3.97;0.80;;;10.40;78.20;;;;;;5034099;28;20095;-70
2023/10/17 03:23:09;;;;;;;2.55;1.10;;;10.40;77.90;;;;;;5033215;28;20034;-70
2023/10/17 03:25:46;;;;;;;2.10;1.00;;;10.30;78.00;;;;;;5035904;28;20029;-69
2023/10/17 03:28:15;;;;;;;3.60;1.13;;;10.30;77.90;;;;;;5051319;28;20029;-70
2023/10/17 03:30:47;;;;;;;2.58;1.02;;;10.30;78.30;;;;;;5053548;28;20095;-70
2023/10/17 03:33:14;;;;;;;3.13;0.98;;;10.30;78.30;;;;;;5052068;28;20040;-70
2023/10/17 03:35:56;;;;;;;1.98;1.00;;;10.30;78.10;;;;;;5053157;28;20508;-69
2023/10/17 03:38:26;;;;;;;4.17;0.80;;;10.30;78.70;;;;;;5053217;28;20021;-69
2023/10/17 03:41:37;;;;;;;2.13;0.98;;;10.30;79.00;;;;;;5053415;28;20090;-69
2023/10/17 03:43:54;;;;;;;1.63;0.93;;;10.20;79.30;;;;;;5050126;28;20036;-70
2023/10/17 03:46:25;;;;;;;1.87;0.80;;;10.20;78.80;;;;;;5052114;28;20103;-70
2023/10/17 03:49:06;;;;;;;4.63;0.90;;;10.20;79.00;;;;;;5053092;28;20028;-69
2023/10/17 03:51:33;;;;;;;2.03;1.00;;;10.10;78.50;;;;;;5052834;28;20381;-69
2023/10/17 03:54:08;;;;;;;1.20;0.70;;;10.10;78.40;;;;;;5053116;28;20342;-69
2023/10/17 03:56:49;;;;;;;4.82;1.13;;;10.10;78.60;;;;;;5053052;28;20080;-70
2023/10/17 04:01:47;;;;;;;1.38;0.73;;;10.10;78.90;;;;;;5053127;28;20040;-70
2023/10/17 04:04:14;;;;;;;2.88;0.90;;;10.10;78.60;;;;;;5051468;28;20032;-69
2023/10/17 04:06:43;;;;;;;7.38;1.20;;;10.10;78.40;;;;;;5052942;28;20460;-70
2023/10/17 04:09:27;;;;;;;3.03;0.88;;;10.10;78.20;;;;;;5052641;28;20032;-70
2023/10/17 04:11:58;;;;;;;4.45;0.98;;;10.10;78.30;;;;;;5052962;28;20107;-69
2023/10/17 04:14:50;;;;;;;4.00;0.93;;;10.10;78.80;;;;;;5052838;28;20036;-70
2023/10/17 04:17:23;;;;;;;2.17;1.10;;;10.10;78.20;;;;;;5052524;28;20425;-70
2023/10/17 04:19:58;;;;;;;1.95;1.02;;;10.10;78.20;;;;;;5052601;28;20400;-70
2023/10/17 04:22:29;;;;;;;1.60;1.00;;;10.10;78.20;;;;;;5052765;28;20033;-69
2023/10/17 04:25:17;;;;;;;1.58;0.70;;;10.10;78.30;;;;;;5052789;28;20354;-70
2023/10/17 04:27:51;;;;;;;1.60;0.90;;;10.10;78.30;;;;;;5052705;28;20021;-70
2023/10/17 04:30:21;;;;;;;3.97;0.82;;;10.10;78.10;;;;;;5052385;28;20052;-69
2023/10/17 04:32:49;;;;;;;1.57;0.80;;;10.10;77.90;;;;;;5052786;28;20017;-69
2023/10/17 04:35:20;;;;;;;3.95;1.00;;;10.10;77.60;;;;;;5052459;28;20040;-70
2023/10/17 04:38:09;;;;;;;5.37;1.00;;;10.10;77.60;;;;;;5052590;28;20021;-69
2023/10/17 04:40:50;;;;;;;2.43;0.90;;;10.10;77.00;;;;;;5051769;28;20041;-70
2023/10/17 04:45:47;;;;;;;2.80;0.73;;;10.20;76.80;;;;;;5052640;28;20358;-70
2023/10/17 04:48:17;;;;;;;4.32;1.05;;;10.10;76.90;;;;;;5052495;28;20441;-69
2023/10/17 04:50:55;;;;;;;2.45;1.02;;;10.10;76.80;;;;;;5052585;28;20025;-70
2023/10/17 04:53:28;;;;;;;2.27;1.00;;;10.10;76.90;;;;;;5052769;28;20071;-69
2023/10/17 04:56:12;;;;;;;;;;;10.20;77.00;;;;;;5052875;28;20086;-69
2023/10/17 04:58:42;;;;;;;;;;;10.10;77.00;;;;;;5055739;28;19905;-70
2023/10/17 05:01:34;;;;;;;3.23;0.70;;;10.10;76.90;;;;;;5054238;28;19916;-69
2023/10/17 05:04:02;;;;;;;1.83;0.97;;;10.10;76.70;;;;;;5055846;28;20076;-69
2023/10/17 06:17:53;;;;;;;2.77;1.43;;;10.10;78.00;;;;;;5054794;28;20082;-70
2023/10/17 06:20:19;;;;;;;4.63;2.40;;;10.10;78.60;;;;;;5053885;28;20021;-70
2023/10/17 06:30:49;;;;;;;28.98;4.07;;;10.20;79.30;;;;;;5054277;28;20029;-70
2023/10/17 06:33:19;;;;;;;15.38;3.10;;;10.20;79.00;;;;;;5053848;28;20025;-70
2023/10/17 06:35:47;;;;;;;20.42;4.97;;;10.20;79.00;;;;;;5053886;28;20108;-70
2023/10/17 06:38:16;;;;;;;11.18;3.63;;;10.20;79.10;;;;;;5053970;28;20539;-70
2023/10/17 06:40:46;;;;;;;23.77;3.30;;;10.30;79.20;;;;;;5054038;28;20350;-67
2023/10/17 06:43:27;;;;;;;6.43;2.70;;;10.30;79.80;;;;;;5053620;28;20103;-67
2023/10/17 06:46:12;;;;;;;5.80;1.80;;;10.30;79.90;;;;;;5053902;28;20028;-66
2023/10/17 06:48:48;;;;;;;9.00;2.23;;;10.40;79.70;;;;;;5053840;28;20358;-67
2023/10/17 06:51:29;;;;;;;8.57;2.43;;;10.50;79.40;;;;;;5052479;28;20077;-67
2023/10/17 06:54:05;;;;;;;7.97;2.33;;;10.50;79.10;;;;;;5053566;28;20066;-67
2023/10/17 06:56:32;;;;;;;3.40;1.73;;;10.60;78.70;;;;;;5053654;28;20544;-67
2023/10/17 06:59:04;;;;;;;4.03;1.48;;;10.60;78.20;;;;;;5053642;28;20048;-67
2023/10/17 07:01:33;;;;;;;26.95;2.40;;;10.70;78.10;;;;;;5053802;28;20032;-67
2023/10/17 07:04:01;;;;;;;8.10;1.98;;;10.70;78.20;;;;;;5053338;28;20021;-67
2023/10/17 07:06:29;;;;;;;4.03;1.42;;;10.80;78.30;;;;;;5053674;28;20502;-67
2023/10/17 07:08:55;;;;;;;2.08;0.90;;;10.80;78.20;;;;;;5053635;28;20025;-67
2023/10/17 07:16:41;;;;;;;3.35;0.95;;;11.00;77.10;;;;;;5053336;28;20374;-67
2023/10/17 07:24:33;;;;;;;4.28;1.40;;;11.10;75.80;;;;;;5045202;28;20362;-67
2023/10/17 07:27:06;;;;;;;3.05;1.50;;;11.20;76.40;;;;;;5033169;28;20428;-66
2023/10/17 07:29:36;;;;;;;4.55;1.60;;;11.20;76.30;;;;;;5033262;28;20021;-67
2023/10/17 07:32:16;;;;;;;2.42;1.63;;;11.20;76.10;;;;;;5032969;28;20601;-67
2023/10/17 07:34:43;;;;;;;5.47;1.55;;;11.30;76.50;;;;;;5032579;28;20188;-67
2023/10/17 07:37:22;;;;;;;2.45;1.02;;;11.30;76.50;;;;;;5031834;28;20068;-67
2023/10/17 07:42:40;;;;;;;3.47;1.70;;;11.40;75.80;;;;;;5032468;28;20117;-67
2023/10/17 07:45:15;;;;;;;;;;;11.50;75.10;;;;;;5031647;28;20025;-67
2023/10/17 07:47:51;;;;;;;8.70;1.92;;;11.50;75.30;;;;;;4977977;28;19920;-67
2023/10/17 07:50:18;;;;;;;2.03;1.00;;;11.50;74.30;;;;;;5032479;28;20025;-67
2023/10/17 07:52:50;;;;;;;6.97;1.10;;;11.60;74.30;;;;;;5032992;28;20021;-67
2023/10/17 07:55:18;;;;;;;2.72;1.30;;;11.60;74.60;;;;;;5032471;28;20028;-66
2023/10/17 07:57:51;;;;;;;1.60;1.00;;;11.70;74.70;;;;;;5032935;28;20413;-67
2023/10/17 08:00:33;;;;;;;6.88;2.30;;;11.70;74.70;;;;;;5032756;28;20037;-66
2023/10/17 08:03:15;;;;;;;2.73;1.20;;;11.80;74.70;;;;;;5032712;28;20382;-67
2023/10/17 08:08:33;;;;;;;3.28;1.45;;;11.90;74.40;;;;;;5032471;28;20088;-67
2023/10/17 08:11:00;;;;;;;5.55;1.38;;;11.90;73.80;;;;;;5032696;28;20109;-67
2023/10/17 08:13:28;;;;;;;1.58;0.90;;;12.00;74.10;;;;;;5031140;28;20037;-67
2023/10/17 08:16:15;;;;;;;1.92;1.10;;;12.00;74.00;;;;;;5032324;28;20116;-66
2023/10/17 08:18:42;;;;;;;2.75;1.23;;;12.10;74.20;;;;;;5032611;28;20029;-67
2023/10/17 08:23:54;;;;;;;5.55;1.30;;;12.20;73.90;;;;;;5032503;28;20137;-67
2023/10/17 08:26:22;;;;;;;2.20;1.00;;;12.30;73.10;;;;;;5032287;28;20045;-67
2023/10/17 08:28:51;;;;;;;2.28;1.08;;;;;;;;;;5047509;28;20036;-67
2023/10/17 08:34:12;;;;;;;10.10;6.30;;;12.50;71.40;;;;;;5035459;28;20045;-67
2023/10/17 08:36:42;;;;;;;11.23;2.85;;;12.50;71.30;;;;;;5035972;28;20137;-67
2023/10/17 08:42:14;;;;;;;7.65;2.75;;;12.60;70.70;;;;;;5002421;28;20075;-67
2023/10/17 08:44:50;;;;;;;9.95;1.75;;;12.70;70.90;;;;;;5036248;28;20413;-67
2023/10/17 08:47:25;;;;;;;2.28;1.20;;;12.70;71.40;;;;;;5036221;28;20029;-67
2023/10/17 08:49:54;;;;;;;4.00;1.13;;;12.70;71.50;;;;;;5035877;28;20021;-67
2023/10/17 08:52:24;;;;;;;4.72;1.25;;;12.80;71.60;;;;;;5035779;28;20028;-67
2023/10/17 08:54:53;;;;;;;67.95;5.18;;;12.90;71.60;;;;;;5036094;28;20029;-67
2023/10/17 08:57:19;;;;;;;2.28;1.00;;;12.90;71.10;;;;;;5035835;28;20040;-67
2023/10/17 09:04:50;;;;;;;6.45;1.30;;;13.10;69.50;;;;;;5035665;28;20025;-67
2023/10/17 09:07:22;;;;;;;1.08;0.80;;;13.10;69.50;;;;;;5035781;28;20029;-67
2023/10/17 09:09:54;;;;;;;7.65;2.13;;;13.20;69.20;;;;;;5035653;28;20076;-66
2023/10/17 09:12:26;;;;;;;4.70;1.67;;;13.30;68.50;;;;;;5035360;28;20470;-67
2023/10/17 09:14:57;;;;;;;10.10;1.20;;;13.30;67.10;;;;;;5035354;28;20100;-67
2023/10/17 09:19:52;;;;;;;1.77;1.10;;;13.40;67.30;;;;;;5035469;28;20112;-67
2023/10/17 09:22:40;;;;;;;2.13;0.98;;;13.40;67.20;;;;;;5035014;28;20029;-67
2023/10/17 09:25:23;;;;;;;16.85;10.57;;;13.50;66.50;;;;;;5035107;28;20056;-66
2023/10/17 09:27:52;;;;;;;6.32;1.10;;;13.60;66.40;;;;;;5034964;28;20045;-67
2023/10/17 09:30:19;;;;;;;3.47;1.00;;;13.60;65.00;;;;;;5035028;28;20032;-67
2023/10/17 09:32:46;;;;;;;3.70;1.00;;;13.70;65.60;;;;;;5034636;28;20363;-67
2023/10/17 09:35:14;;;;;;;5.07;1.52;;;13.70;65.80;;;;;;5034332;28;20034;-67
2023/10/17 09:37:45;;;;;;;2.63;1.30;;;13.80;65.80;;;;;;5031697;28;21463;-67
2023/10/17 09:40:13;;;;;;;5.82;1.30;;;13.80;66.10;;;;;;5035151;28;20060;-67
2023/10/17 09:42:47;;;;;;;1.50;1.00;;;13.80;66.20;;;;;;5034735;28;20060;-67
2023/10/17 09:45:14;;;;;;;6.68;1.55;;;13.90;66.80;;;;;;5034748;28;20025;-67
2023/10/17 09:47:47;;;;;;;2.72;1.20;;;13.90;66.50;;;;;;5034085;28;20061;-67
2023/10/17 09:50:20;;;;;;;2.33;1.13;;;14.00;65.80;;;;;;5034709;28;20021;-67
2023/10/17 09:52:51;;;;;;;3.28;1.23;;;14.00;65.20;;;;;;5034788;28;20389;-66
2023/10/17 09:55:18;;;;;;;2.97;1.10;;;14.00;65.60;;;;;;5034603;28;20413;-67
2023/10/17 09:57:50;;;;;;;19.98;2.15;;;14.10;66.10;;;;;;5034441;28;20037;-67
2023/10/17 10:00:27;;;;;;;72.43;4.15;;;14.10;66.20;;;;;;5034631;28;20380;-67
2023/10/17 10:02:54;;;;;;;4.60;1.88;;;14.20;66.10;;;;;;5034512;28;20216;-67
2023/10/17 10:05:25;;;;;;;9.40;1.40;;;14.30;65.80;;;;;;5034311;28;20022;-66
2023/10/17 10:08:27;;;;;;;1.23;0.75;;;14.30;64.90;;;;;;5034357;28;20025;-67
2023/10/17 10:10:53;;;;;;;6.13;1.35;;;14.40;64.70;;;;;;5030654;28;20366;-67
2023/10/17 10:13:22;;;;;;;4.53;2.30;;;14.50;63.80;;;;;;5034100;28;20029;-67
2023/10/17 10:16:01;;;;;;;3.60;2.20;;;14.60;63.70;;;;;;5033949;28;20047;-67
2023/10/17 10:18:36;;;;;;;6.57;2.20;;;14.70;62.10;;;;;;5034230;28;20057;-67
2023/10/17 10:21:09;;;;;;;2.55;2.05;;;14.80;61.10;;;;;;5033903;28;20381;-67
2023/10/17 10:23:39;;;;;;;4.95;2.50;;;14.80;61.00;;;;;;5034047;28;20037;-67
2023/10/17 10:26:11;;;;;;;8.43;2.65;;;14.80;60.80;;;;;;5034033;28;20021;-67
2023/10/17 10:28:51;;;;;;;56.78;5.22;;;14.90;62.30;;;;;;5034424;28;20025;-67
2023/10/17 10:31:24;;;;;;;11.98;2.33;;;14.90;62.40;;;;;;5032355;28;20021;-67
2023/10/17 10:33:59;;;;;;;4.85;2.90;;;15.00;61.30;;;;;;5033314;28;20128;-67
2023/10/17 10:36:27;;;;;;;3.72;2.20;;;15.00;60.60;;;;;;5033727;28;20030;-67
2023/10/17 10:38:54;;;;;;;4.38;2.83;;;15.10;61.20;;;;;;5033421;28;20101;-67
2023/10/17 10:41:22;;;;;;;4.60;2.38;;;15.10;60.60;;;;;;5034034;28;20080;-67
2023/10/17 10:43:52;;;;;;;4.07;2.88;;;15.10;60.50;;;;;;5033980;28;20017;-67
2023/10/17 10:46:18;;;;;;;3.03;2.47;;;15.20;60.50;;;;;;5033978;28;20076;-67
2023/10/17 10:48:53;;;;;;;21.42;3.13;;;15.20;60.10;;;;;;5034436;28;20022;-67
2023/10/17 10:51:26;;;;;;;4.65;2.40;;;15.20;59.70;;;;;;5034151;28;20017;-67
2023/10/17 10:53:56;;;;;;;4.72;2.40;;;15.30;59.70;;;;;;5034176;28;20350;-67
2023/10/17 10:56:28;;;;;;;12.25;3.03;;;15.30;59.50;;;;;;5033046;28;20072;-67
2023/10/17 10:58:57;;;;;;;2.95;2.15;;;15.30;59.10;;;;;;5034123;28;20033;-67
2023/10/17 11:01:25;;;;;;;3.65;2.20;;;15.40;58.90;;;;;;5033634;28;20076;-67
2023/10/17 11:03:52;;;;;;;4.85;2.70;;;15.40;59.20;;;;;;5033826;28;20044;-67
2023/10/17 11:06:25;;;;;;;3.92;2.60;;;15.50;59.50;;;;;;5033757;28;20049;-69
2023/10/17 11:08:52;;;;;;;4.53;2.78;;;;;;;;;;5033358;28;20382;-69
2023/10/17 11:11:19;;;;;;;4.22;2.67;;;15.60;57.70;;;;;;5033538;28;20084;-69
2023/10/17 11:13:47;;;;;;;4.97;2.70;;;15.60;58.40;;;;;;5033512;28;20092;-69
2023/10/17 11:16:16;;;;;;;4.18;2.95;;;15.60;58.90;;;;;;5033536;28;20028;-69
2023/10/17 11:18:45;;;;;;;6.63;2.67;;;15.70;58.80;;;;;;5033529;28;20405;-69
2023/10/17 11:21:13;;;;;;;4.78;2.92;;;15.70;58.20;;;;;;5033486;28;20044;-69
2023/10/17 11:23:46;;;;;;;4.22;2.70;;;15.70;58.10;;;;;;5033374;28;20040;-69
2023/10/17 11:26:14;;;;;;;3.53;2.60;;;15.70;58.30;;;;;;5033654;28;20025;-69
2023/10/17 11:28:46;;;;;;;4.75;2.92;;;15.80;57.80;;;;;;5033562;28;20394;-69
2023/10/17 11:31:13;;;;;;;;;;;15.80;57.10;;;;;;5032354;28;20056;-69
2023/10/17 11:33:45;;;;;;;4.47;2.78;;;15.80;57.60;;;;;;5033097;28;20083;-69
2023/10/17 11:36:21;;;;;;;5.05;2.85;;;15.80;56.80;;;;;;5033182;28;20453;-68
2023/10/17 11:38:56;;;;;;;3.58;2.70;;;15.80;57.40;;;;;;5033374;28;20532;-69
2023/10/17 11:41:29;;;;;;;5.45;2.65;;;15.90;58.00;;;;;;5033131;28;20018;-68
2023/10/17 11:43:55;;;;;;;3.90;2.90;;;15.90;57.60;;;;;;5033334;28;20083;-69
2023/10/17 11:46:31;;;;;;;3.90;2.88;;;15.90;57.30;;;;;;5033188;28;20030;-69
2023/10/17 11:49:39;;;;;;;3.55;2.90;;;16.00;57.00;;;;;;5033449;28;20026;-69
2023/10/17 11:52:15;;;;;;;3.58;2.80;;;16.00;57.00;;;;;;5032714;28;20029;-69
2023/10/17 11:54:58;;;;;;;6.60;3.40;;;;;;;;;;5033045;28;20075;-69
2023/10/17 11:57:25;;;;;;;5.32;2.90;;;16.10;56.40;;;;;;5032963;28;20041;-68
2023/10/17 12:00:07;;;;;;;7.10;3.10;;;16.20;57.40;;;;;;5033040;28;20032;-69
2023/10/17 12:02:33;;;;;;;4.25;2.75;;;16.20;57.30;;;;;;5033072;28;20128;-68
2023/10/17 12:05:03;;;;;;;4.32;2.83;;;16.30;57.30;;;;;;5032699;28;20025;-69
2023/10/17 12:07:29;;;;;;;4.13;2.67;;;16.30;56.10;;;;;;5033962;28;20025;-69
2023/10/17 12:10:04;;;;;;;4.70;2.88;;;16.30;55.70;;;;;;5036668;28;20062;-70
2023/10/17 12:12:30;;;;;;;5.55;2.92;;;16.30;55.60;;;;;;5036622;28;20036;-69
2023/10/17 12:14:57;;;;;;;3.80;2.80;;;16.40;56.00;;;;;;5036813;28;20028;-69
2023/10/17 12:17:23;;;;;;;4.60;2.95;;;16.40;56.10;;;;;;5036652;28;20033;-69
2023/10/17 12:19:51;;;;;;;5.20;3.08;;;16.50;55.80;;;;;;5036527;28;20034;-69
2023/10/17 12:22:17;;;;;;;7.10;3.17;;;16.50;55.90;;;;;;5036578;28;20030;-70
2023/10/17 12:24:45;;;;;;;5.43;3.00;;;16.50;54.40;;;;;;5036514;28;20112;-69
2023/10/17 12:27:14;;;;;;;3.15;2.55;;;16.50;53.70;;;;;;5036553;28;20495;-69
2023/10/17 12:29:40;;;;;;;4.35;2.42;;;16.60;54.60;;;;;;5036700;28;20036;-69
2023/10/17 12:32:10;;;;;;;4.35;2.50;;;16.60;54.50;;;;;;5036450;28;20033;-69
2023/10/17 12:34:40;;;;;;;5.13;2.90;;;16.60;54.80;;;;;;5035272;28;20437;-69
2023/10/17 12:37:10;;;;;;;5.47;3.03;;;16.70;54.50;;;;;;5034848;28;20037;-69
2023/10/17 12:39:40;;;;;;;3.95;2.83;;;16.70;54.70;;;;;;5036235;28;20114;-68
2023/10/17 12:42:06;;;;;;;4.38;2.80;;;16.70;55.40;;;;;;5036465;28;20085;-69
2023/10/17 12:44:32;;;;;;;3.67;2.55;;;16.80;55.10;;;;;;5036166;28;20029;-69
2023/10/17 12:46:59;;;;;;;5.78;2.80;;;16.80;54.20;;;;;;5035788;28;20373;-70
2023/10/17 12:49:26;;;;;;;3.00;2.65;;;16.80;54.40;;;;;;5036542;28;20413;-68
2023/10/17 12:51:53;;;;;;;4.63;2.88;;;16.80;54.60;;;;;;5036072;28;20029;-68
2023/10/17 12:54:18;;;;;;;5.05;2.95;;;16.80;54.00;;;;;;5035314;28;20034;-69
2023/10/17 12:56:44;;;;;;;4.28;2.63;;;16.80;54.50;;;;;;5035140;28;20485;-70
2023/10/17 12:59:13;;;;;;;4.70;2.92;;;16.70;54.40;;;;;;5036509;28;20047;-70
2023/10/17 13:01:42;;;;;;;4.47;2.65;;;16.70;53.00;;;;;;5035898;28;20026;-69
2023/10/17 13:04:09;;;;;;;7.70;2.92;;;16.70;53.90;;;;;;5035906;28;20053;-69
2023/10/17 13:06:37;;;;;;;4.07;2.70;;;16.70;53.50;;;;;;5035906;28;20381;-69
2023/10/17 13:09:04;;;;;;;3.80;2.78;;;16.70;53.90;;;;;;5036009;28;20026;-69
2023/10/17 13:11:30;;;;;;;5.05;2.83;;;16.70;54.40;;;;;;5035825;28;20032;-69
2023/10/17 13:13:57;;;;;;;5.80;2.95;;;16.70;53.00;;;;;;5035715;28;20421;-69
2023/10/17 13:16:26;;;;;;;4.32;3.00;;;16.70;53.10;;;;;;5035516;28;20077;-69
2023/10/17 13:18:56;;;;;;;4.53;2.83;;;16.70;53.50;;;;;;5034907;28;20378;-68
2023/10/17 13:21:22;;;;;;;4.13;2.97;;;16.70;52.20;;;;;;5035415;28;20032;-69
2023/10/17 13:23:48;;;;;;;3.47;2.70;;;16.70;53.20;;;;;;5035429;28;20022;-69
2023/10/17 13:26:15;;;;;;;4.03;2.88;;;16.60;53.90;;;;;;5035116;28;20036;-68
2023/10/17 13:28:42;;;;;;;4.20;2.80;;;16.60;54.30;;;;;;5034078;28;20071;-69
2023/10/17 13:31:19;;;;;;;7.50;3.00;;;16.60;53.80;;;;;;5035224;28;20036;-69
2023/10/17 13:33:48;;;;;;;5.85;2.85;;;16.60;54.50;;;;;;5041961;28;20064;-68
2023/10/17 13:36:20;;;;;;;6.75;3.10;;;16.60;54.90;;;;;;5054264;28;20037;-69
2023/10/17 13:38:45;;;;;;;3.55;2.72;;;16.60;53.70;;;;;;5055225;28;20029;-69
2023/10/17 13:41:15;;;;;;;5.05;3.08;;;16.60;54.00;;;;;;5054853;28;20033;-69
2023/10/17 13:43:47;;;;;;;4.57;2.80;;;16.60;55.00;;;;;;5055131;28;20362;-69
2023/10/17 13:46:16;;;;;;;4.25;3.10;;;16.60;55.20;;;;;;5054956;28;20044;-69
2023/10/17 13:48:48;;;;;;;6.10;2.70;;;16.60;55.20;;;;;;5054917;28;20087;-67
2023/10/17 13:51:15;;;;;;;3.67;2.83;;;16.60;55.00;;;;;;5054694;28;20029;-69
2023/10/17 13:53:44;;;;;;;3.45;2.60;;;16.60;55.00;;;;;;5054853;28;20029;-69
2023/10/17 13:56:13;;;;;;;59.72;33.25;;;16.60;55.40;;;;;;5054532;28;20037;-70
2023/10/17 13:58:41;;;;;;;6.50;4.57;;;16.60;54.30;;;;;;5054970;28;20392;-70
2023/10/17 14:01:27;;;;;;;4.10;2.83;;;16.50;54.80;;;;;;5054639;28;20029;-69
2023/10/17 14:03:55;;;;;;;4.97;3.03;;;16.60;54.80;;;;;;5054708;28;20017;-69
2023/10/17 14:06:21;;;;;;;4.80;3.63;;;16.50;55.00;;;;;;5054904;28;20025;-69
2023/10/17 14:08:47;;;;;;;3.45;2.67;;;16.50;55.40;;;;;;5054949;28;20083;-69
2023/10/17 14:11:23;;;;;;;5.05;3.30;;;16.50;55.60;;;;;;5054532;28;20029;-69
2023/10/17 14:13:50;;;;;;;8.48;3.30;;;16.50;55.40;;;;;;5054588;28;20449;-69
2023/10/17 14:16:17;;;;;;;5.60;3.47;;;16.50;55.20;;;;;;5054602;28;20044;-69
2023/10/17 14:19:18;;;;;;;4.45;3.28;;;16.40;55.50;;;;;;5054556;28;20025;-69
2023/10/17 14:21:35;;;;;;;5.13;3.50;;;16.40;55.70;;;;;;5051830;28;20524;-70
2023/10/17 14:24:07;;;;;;;4.90;3.30;;;16.30;55.90;;;;;;5054169;28;20048;-70
2023/10/17 14:26:33;;;;;;;;;;;16.30;56.30;;;;;;5054623;28;20021;-70
2023/10/17 14:29:00;;;;;;;5.57;3.80;;;16.30;55.90;;;;;;5054204;28;19905;-69
2023/10/17 14:31:29;;;;;;;4.68;3.53;;;16.30;56.30;;;;;;5052262;28;20499;-69
2023/10/17 14:33:57;;;;;;;5.47;3.42;;;16.20;56.10;;;;;;5053816;28;20517;-69
2023/10/17 14:36:23;;;;;;;5.40;3.40;;;16.20;56.30;;;;;;5053682;28;20096;-69
2023/10/17 14:38:49;;;;;;;4.22;3.33;;;16.20;55.90;;;;;;5054151;28;20025;-69
2023/10/17 14:41:15;;;;;;;4.65;3.30;;;16.10;55.90;;;;;;5053818;28;20519;-69
2023/10/17 14:43:49;;;;;;;7.15;3.80;;;16.10;55.60;;;;;;5053893;28;20501;-69
2023/10/17 14:46:21;;;;;;;5.43;3.63;;;16.10;55.80;;;;;;5053799;28;20109;-70
2023/10/17 14:48:47;;;;;;;5.07;3.88;;;16.00;55.50;;;;;;5053202;28;20132;-70
2023/10/17 14:51:14;;;;;;;7.10;3.67;;;16.00;56.00;;;;;;5053758;28;20067;-68
2023/10/17 14:53:46;;;;;;;3.95;3.35;;;15.90;56.50;;;;;;5053928;28;20028;-69
2023/10/17 14:56:12;;;;;;;7.68;3.50;;;15.90;57.00;;;;;;5053519;28;20366;-70
2023/10/17 14:58:46;;;;;;;4.78;3.50;;;15.80;56.30;;;;;;5053694;28;20077;-69
2023/10/17 15:01:12;;;;;;;4.47;3.63;;;15.80;56.70;;;;;;5053542;28;20439;-69
2023/10/17 15:03:38;;;;;;;6.72;3.72;;;15.80;56.90;;;;;;5053621;28;20025;-68
2023/10/17 15:06:06;;;;;;;5.28;3.63;;;15.70;57.10;;;;;;5052543;28;20043;-69
2023/10/17 15:08:32;;;;;;;9.30;4.13;;;15.70;57.40;;;;;;5051915;28;20380;-68
2023/10/17 15:11:05;;;;;;;5.28;3.78;;;15.60;57.60;;;;;;5052063;28;20045;-68
2023/10/17 15:13:32;;;;;;;5.85;4.22;;;15.60;57.90;;;;;;5047669;28;20017;-67
2023/10/17 15:15:59;;;;;;;9.70;4.60;;;15.60;58.10;;;;;;5052959;28;20124;-68
2023/10/17 15:18:25;;;;;;;7.72;5.00;;;15.50;58.10;;;;;;5052901;28;20475;-69
2023/10/17 15:21:01;;;;;;;9.27;4.78;;;15.50;58.10;;;;;;5052396;28;20035;-68
2023/10/17 15:23:29;;;;;;;9.18;4.70;;;15.40;58.20;;;;;;5052639;28;20059;-69